Taylor, Michigan
Current Conditions -  °F | °C
As of 3:53 AM on Thursday 27 Nov 2014 (Local Time) from KDTW Reporting Station
Overcast Overcast  
Wind Chill: 19°   Ceiling: 5500
Heat Index: 29°   Visibility: 10mi
Dew Point: 22°   Wind: 12mph
Humidity: 75%   Direction: 310°NW
Pressure: 30.1"   Gusts: NA
Location:  42.23°N, 83.26°W
Report Text: KDTW 270853Z 31010KT 10SM SCT035 OVC055 M02/M06 A3010 RMK AO2 SLP199 60000 T10171056 53003
Loading
Personal Weather Stations






























Interactive Weather Map New forecast layout! Learn more

10-Day Weather Forecast

Advertisements
Track Severe Weather on mobile